Time;durP1;ratioP1;P1;durP2;ratioP2;P2;SDS_P1;SDS_P2;PMS_P1;PMS_P2;Temp;Humidity;BMP_temperature;BMP_pressure;BME280_temperature;BME280_humidity;BME280_pressure;Samples;Min_cycle;Max_cycle;Signal;HPM_P1;HPM_P2
2022/07/11 00:00:16;;;;;;;2.70;2.50;;;;;;;19.03;65.59;94842.22;5137636;27;20442;-86
2022/07/11 00:02:43;;;;;;;3.30;2.80;;;;;;;19.06;65.75;94844.50;5137994;27;20434;-87
2022/07/11 00:05:11;;;;;;;3.07;2.87;;;;;;;19.06;65.53;94849.00;5138041;27;20457;-87
2022/07/11 00:07:38;;;;;;;2.60;2.40;;;;;;;19.07;65.10;94848.81;5137632;27;20447;-88
2022/07/11 00:10:06;;;;;;;2.70;2.50;;;;;;;19.00;65.60;94844.41;5137895;27;20458;-87
2022/07/11 00:12:35;;;;;;;3.77;3.10;;;;;;;19.00;65.62;94845.25;5137731;27;20500;-86
2022/07/11 00:15:02;;;;;;;2.80;2.60;;;;;;;19.06;65.69;94849.81;5137498;27;20457;-86
2022/07/11 00:17:29;;;;;;;2.60;2.40;;;;;;;19.03;64.87;94844.88;5137784;27;20426;-86
2022/07/11 00:19:56;;;;;;;3.80;2.70;;;;;;;19.04;65.31;94857.16;5137436;27;20449;-86
2022/07/11 00:22:23;;;;;;;2.87;2.67;;;;;;;18.99;65.59;94854.22;5137713;27;20538;-87
2022/07/11 00:24:49;;;;;;;4.37;2.87;;;;;;;18.94;65.27;94859.28;5137562;27;20450;-86
2022/07/11 00:27:16;;;;;;;2.63;2.43;;;;;;;18.90;65.66;94865.97;5137207;27;20446;-86
2022/07/11 00:29:45;;;;;;;3.00;2.50;;;;;;;18.85;65.74;94855.06;5137392;27;20442;-84
2022/07/11 00:32:12;;;;;;;2.67;2.47;;;;;;;18.81;65.42;94861.75;5137231;27;20438;-84
2022/07/11 00:34:39;;;;;;;2.97;2.50;;;;;;;18.72;65.89;94854.84;5100846;27;20569;-87
2022/07/11 00:37:06;;;;;;;5.33;3.30;;;;;;;18.69;66.00;94868.50;5137266;27;20533;-86
2022/07/11 00:39:33;;;;;;;2.43;2.23;;;;;;;18.66;66.85;94863.53;5137253;27;20438;-86
2022/07/11 00:42:01;;;;;;;2.20;2.10;;;;;;;18.68;66.48;94866.84;5137252;27;20433;-85
2022/07/11 00:44:27;;;;;;;3.47;2.47;;;;;;;18.65;66.39;94868.03;5137111;27;20454;-86
2022/07/11 00:46:56;;;;;;;4.90;2.40;;;;;;;18.64;66.68;94866.38;5136691;27;20928;-87
2022/07/11 00:49:23;;;;;;;3.50;2.40;;;;;;;18.63;66.53;94871.88;5136933;27;20465;-86
2022/07/11 00:51:50;;;;;;;2.53;2.33;;;;;;;18.61;67.25;94863.22;5137059;27;20447;-85
2022/07/11 00:54:20;;;;;;;2.20;2.00;;;;;;;18.62;67.15;94864.88;5136966;27;20500;-85
2022/07/11 00:56:47;;;;;;;2.87;2.67;;;;;;;18.62;67.09;94873.69;5136634;27;20440;-85
2022/07/11 00:59:15;;;;;;;2.90;2.70;;;;;;;18.58;67.12;94867.91;5136933;27;20519;-85
2022/07/11 01:01:41;;;;;;;2.60;2.40;;;;;;;18.50;67.52;94865.31;5136737;27;20473;-88
2022/07/11 01:04:10;;;;;;;5.13;2.63;;;;;;;18.37;67.92;94865.06;5136685;27;20441;-84
2022/07/11 01:06:37;;;;;;;5.90;2.90;;;;;;;18.26;68.75;94860.19;5136583;27;20529;-85
2022/07/11 01:09:04;;;;;;;3.40;3.03;;;;;;;18.23;69.65;94869.34;5135190;27;20472;-86
2022/07/11 01:11:31;;;;;;;3.33;3.13;;;;;;;18.26;68.89;94873.47;5136203;27;20463;-87
2022/07/11 01:13:58;;;;;;;2.67;2.47;;;;;;;18.30;68.78;94869.44;5100708;27;20918;-85
2022/07/11 01:16:25;;;;;;;4.40;2.50;;;;;;;18.33;69.07;94862.97;5136661;27;20446;-88
2022/07/11 01:18:53;;;;;;;4.03;2.60;;;;;;;18.35;68.91;94867.09;5136557;27;20447;-86
2022/07/11 01:21:25;;;;;;;5.07;3.00;;;;;;;18.34;69.24;94868.09;5136253;27;20982;-86
2022/07/11 01:23:55;;;;;;;2.63;2.30;;;;;;;18.43;68.90;94866.19;5137092;27;20446;-87
2022/07/11 01:26:23;;;;;;;6.13;2.93;;;;;;;18.46;68.61;94863.16;5136231;27;20977;-86
2022/07/11 01:28:50;;;;;;;2.70;2.50;;;;;;;18.50;67.82;94865.31;5099903;27;20449;-86
2022/07/11 01:31:17;;;;;;;5.70;3.00;;;;;;;18.55;68.47;94870.91;5082921;27;20476;-86
2022/07/11 01:33:44;;;;;;;3.27;2.97;;;;;;;18.54;68.15;94866.59;5136296;27;20480;-86
2022/07/11 01:36:12;;;;;;;2.93;2.40;;;;;;;18.61;67.75;94856.06;5135757;27;21019;-86
2022/07/11 01:38:39;;;;;;;2.90;2.70;;;;;;;18.65;67.79;94853.91;5136162;27;20542;-85
2022/07/11 01:41:08;;;;;;;2.67;2.47;;;;;;;18.64;67.45;94861.06;5136650;27;20542;-86
2022/07/11 01:43:35;;;;;;;3.80;2.40;;;;;;;18.66;67.33;94864.38;5135931;27;20852;-86
2022/07/11 01:46:02;;;;;;;2.53;2.13;;;;;;;18.55;66.76;94854.97;5135944;27;20443;-84
2022/07/11 01:48:29;;;;;;;2.67;2.47;;;;;;;18.57;67.21;94863.59;5135720;27;20955;-86
2022/07/11 01:50:56;;;;;;;2.90;2.70;;;;;;;18.46;67.58;94865.81;5135931;27;20546;-85
2022/07/11 01:53:23;;;;;;;2.60;2.40;;;;;;;18.51;67.27;94866.13;5135688;27;20546;-85
2022/07/11 01:55:50;;;;;;;3.43;2.90;;;;;;;18.37;66.93;94873.03;5135933;27;20445;-87
2022/07/11 01:58:18;;;;;;;7.47;2.73;;;;;;;18.34;66.81;94870.75;5135648;27;20450;-86
2022/07/11 02:00:45;;;;;;;10.40;2.60;;;;;;;18.36;66.90;94878.53;5135385;27;20912;-87
2022/07/11 02:03:12;;;;;;;2.60;2.40;;;;;;;18.25;67.09;94877.13;5135563;27;20451;-86
2022/07/11 02:05:40;;;;;;;4.07;2.10;;;;;;;18.20;66.98;94880.28;5135225;27;20438;-87
2022/07/11 02:08:15;;;;;;;3.13;2.50;;;;;;;18.23;66.69;94877.31;5135786;27;20474;-87
2022/07/11 02:10:43;;;;;;;3.00;2.67;;;;;;;18.20;67.41;94884.78;5135916;27;20539;-87
2022/07/11 02:13:11;;;;;;;2.67;2.47;;;;;;;18.18;67.34;94881.47;5135540;27;20507;-88
2022/07/11 02:15:41;;;;;;;10.83;2.60;;;;;;;18.08;67.11;94879.06;5135160;27;20941;-87
2022/07/11 02:18:08;;;;;;;2.77;2.57;;;;;;;18.08;67.57;94891.50;5135599;27;20443;-86
2022/07/11 02:20:36;;;;;;;4.37;2.57;;;;;;;18.10;68.79;94894.81;5134792;27;20467;-87
2022/07/11 02:23:03;;;;;;;7.70;3.17;;;;;;;18.14;68.27;94891.63;5135300;27;20458;-87
2022/07/11 02:25:31;;;;;;;2.80;2.53;;;;;;;18.10;67.87;94890.34;5135126;27;20495;-86
2022/07/11 02:27:59;;;;;;;3.63;2.97;;;;;;;18.11;68.08;94893.81;5135244;27;20451;-87
2022/07/11 02:30:26;;;;;;;3.20;2.80;;;;;;;18.10;68.11;94892.16;5134849;27;20443;-86
2022/07/11 02:32:56;;;;;;;2.80;2.60;;;;;;;18.07;68.16;94892.53;5135277;27;20920;-87
2022/07/11 02:35:23;;;;;;;3.30;2.43;;;;;;;18.04;68.47;94903.50;5134527;27;20474;-86
2022/07/11 02:37:49;;;;;;;2.90;2.70;;;;;;;18.05;68.07;94905.16;5134878;27;20454;-85
2022/07/11 02:40:16;;;;;;;3.00;2.70;;;;;;;18.07;68.15;94900.47;5134776;27;20443;-87
2022/07/11 02:42:45;;;;;;;2.87;2.50;;;;;;;18.10;67.97;94910.75;5135120;27;20487;-86
2022/07/11 02:45:12;;;;;;;2.50;2.30;;;;;;;18.09;68.50;94903.78;5134396;27;20496;-86
2022/07/11 02:47:42;;;;;;;2.70;2.37;;;;;;;18.02;67.83;94905.50;5134496;27;20447;-86
2022/07/11 02:50:12;;;;;;;2.53;2.33;;;;;;;18.03;68.09;94904.50;5134929;27;20476;-87
2022/07/11 02:52:40;;;;;;;6.30;2.80;;;;;;;17.98;68.27;94907.69;5135025;27;20480;-86
2022/07/11 02:55:08;;;;;;;2.70;2.50;;;;;;;17.93;69.77;94904.72;5134251;27;20478;-86
2022/07/11 02:57:36;;;;;;;4.50;2.40;;;;;;;17.81;68.81;94904.28;5048965;27;20945;-84
2022/07/11 03:00:04;;;;;;;3.30;3.03;;;;;;;17.84;68.89;94909.22;5134286;27;20956;-87
2022/07/11 03:02:31;;;;;;;14.47;3.43;;;;;;;17.82;68.71;94907.75;5134346;27;20512;-87
2022/07/11 03:04:58;;;;;;;2.77;2.37;;;;;;;17.83;69.65;94910.25;5134226;27;20874;-86
2022/07/11 03:07:27;;;;;;;3.03;2.73;;;;;;;17.87;69.09;94927.47;5134470;27;20818;-87
2022/07/11 03:09:54;;;;;;;3.73;2.30;;;;;;;17.90;69.20;94927.13;5134148;27;20454;-85
2022/07/11 03:12:22;;;;;;;2.57;2.37;;;;;;;18.00;68.95;94931.41;5134331;27;20446;-86
2022/07/11 03:14:49;;;;;;;3.20;2.70;;;;;;;18.09;69.06;94925.88;5134036;27;20479;-87
2022/07/11 03:17:16;;;;;;;2.80;2.60;;;;;;;18.15;69.07;94924.31;5081523;27;20443;-86
2022/07/11 03:19:43;;;;;;;2.93;2.63;;;;;;;18.23;69.19;94926.97;5134434;27;20817;-88
2022/07/11 03:22:10;;;;;;;2.97;2.77;;;;;;;18.27;68.52;94928.25;5134210;27;20446;-84
2022/07/11 03:24:38;;;;;;;9.00;3.37;;;;;;;18.36;69.48;94943.13;5134324;27;20511;-86
2022/07/11 03:27:06;;;;;;;3.20;2.97;;;;;;;18.45;69.62;94944.72;5134590;27;20438;-85
2022/07/11 03:29:33;;;;;;;2.77;2.57;;;;;;;18.55;69.42;94932.03;5133500;27;20462;-86
2022/07/11 03:32:00;;;;;;;3.70;2.90;;;;;;;18.67;68.94;94939.63;5079745;27;20541;-86
2022/07/11 03:34:27;;;;;;;3.70;3.10;;;;;;;18.83;68.75;94934.19;5133615;27;20478;-84
2022/07/11 03:36:54;;;;;;;4.23;2.87;;;;;;;19.06;68.32;94934.09;5133898;28;20450;-85
2022/07/11 03:39:22;;;;;;;7.97;3.20;;;;;;;19.46;68.34;94925.72;5133861;28;20465;-86
2022/07/11 03:41:50;;;;;;;5.87;2.93;;;;;;;19.90;65.71;94930.22;5133743;28;20458;-86
2022/07/11 03:44:17;;;;;;;3.23;2.93;;;;;;;20.37;62.68;94937.72;5097245;28;20833;-86
2022/07/11 03:46:44;;;;;;;3.13;2.47;;;;;;;20.70;59.01;94937.25;5133710;28;20441;-85
2022/07/11 03:49:10;;;;;;;3.40;2.67;;;;;;;21.03;57.34;94932.22;5133760;28;20453;-86
2022/07/11 03:51:37;;;;;;;3.00;2.20;;;;;;;21.31;55.59;94938.41;5133466;28;20438;-87
2022/07/11 03:54:05;;;;;;;3.17;2.37;;;;;;;21.70;55.82;94942.38;5133746;28;20852;-88
2022/07/11 03:56:32;;;;;;;2.20;2.10;;;;;;;22.03;54.17;94947.88;5133242;28;20441;-85
2022/07/11 03:59:01;;;;;;;3.47;2.33;;;;;;;22.06;53.13;94949.34;5133436;28;20462;-85
2022/07/11 04:01:28;;;;;;;4.00;3.10;;;;;;;22.04;53.75;94946.88;5133339;28;20460;-85
2022/07/11 04:03:55;;;;;;;4.37;2.20;;;;;;;22.15;53.41;94953.50;5133343;28;20510;-86
2022/07/11 04:06:22;;;;;;;3.43;2.33;;;;;;;22.25;52.93;94964.63;5133181;28;21013;-85
2022/07/11 04:08:48;;;;;;;3.73;2.23;;;;;;;22.28;53.11;94966.94;5133703;28;20448;-86
2022/07/11 04:11:15;;;;;;;3.90;2.90;;;;;;;22.51;53.32;94966.56;5133443;28;20483;-85
2022/07/11 04:13:42;;;;;;;3.97;2.37;;;;;;;22.34;52.57;94970.63;5133254;28;20444;-86
2022/07/11 04:16:11;;;;;;;3.00;2.80;;;;;;;22.38;52.96;94967.34;5133560;28;20431;-86
2022/07/11 04:18:37;;;;;;;2.93;2.73;;;;;;;22.30;53.84;94974.75;5133834;28;20527;-87
2022/07/11 04:21:05;;;;;;;2.80;2.43;;;;;;;22.17;54.10;94978.16;5133973;28;20443;-87
2022/07/11 04:23:31;;;;;;;2.40;2.30;;;;;;;22.04;55.33;94970.94;5133331;28;20441;-88
2022/07/11 04:25:58;;;;;;;3.37;2.60;;;;;;;21.82;55.80;94977.34;5133710;28;20450;-88
2022/07/11 04:28:25;;;;;;;2.90;2.50;;;;;;;21.77;56.40;94985.97;5134196;28;20450;-87
2022/07/11 04:30:52;;;;;;;3.30;3.10;;;;;;;21.91;56.10;94981.50;5133862;28;20814;-86
2022/07/11 04:33:21;;;;;;;3.13;2.80;;;;;;;22.06;55.81;94984.09;5133783;28;20486;-87
2022/07/11 04:35:48;;;;;;;3.80;2.87;;;;;;;22.04;56.12;94986.16;5133358;28;20475;-87
2022/07/11 04:38:16;;;;;;;4.00;2.67;;;;;;;22.02;55.69;94980.97;5133597;28;20463;-87
2022/07/11 04:40:43;;;;;;;4.10;3.00;;;;;;;21.92;55.64;94975.13;5131021;28;20466;-86
2022/07/11 04:43:09;;;;;;;3.03;2.73;;;;;;;22.24;55.38;94981.69;5135185;27;20450;-86
2022/07/11 04:45:36;;;;;;;2.93;2.73;;;;;;;22.62;54.71;94990.06;5136945;27;20455;-87
2022/07/11 04:48:04;;;;;;;3.47;2.67;;;;;;;22.96;53.15;94978.44;5136861;27;20458;-88
2022/07/11 04:50:32;;;;;;;2.97;2.70;;;;;;;23.16;52.54;94987.31;5136898;27;20444;-86
2022/07/11 04:52:59;;;;;;;5.93;2.70;;;;;;;23.37;52.37;94993.47;5137128;27;20445;-86
2022/07/11 04:55:26;;;;;;;3.10;2.77;;;;;;;23.29;52.67;94978.44;5136415;27;20471;-86
2022/07/11 04:57:53;;;;;;;2.83;2.63;;;;;;;23.45;52.86;94994.13;5136987;27;20787;-86
2022/07/11 05:00:20;;;;;;;17.57;3.17;;;;;;;23.68;51.09;94979.47;5136727;27;20448;-85
2022/07/11 05:02:47;;;;;;;3.53;2.93;;;;;;;23.60;50.93;94982.38;5136751;27;20478;-85
2022/07/11 05:05:14;;;;;;;3.90;2.80;;;;;;;23.50;50.54;94982.78;5136368;27;20450;-85
2022/07/11 05:07:43;;;;;;;3.00;2.10;;;;;;;23.41;51.00;94987.50;5136695;27;20454;-86
2022/07/11 05:10:10;;;;;;;3.17;2.60;;;;;;;23.56;51.11;94991.84;5136356;27;20445;-87
2022/07/11 05:12:37;;;;;;;8.53;3.13;;;;;;;23.70;51.34;94996.16;5136481;27;20444;-88
2022/07/11 05:15:05;;;;;;;5.13;2.43;;;;;;;24.01;50.24;94992.81;5136421;27;20476;-87
2022/07/11 05:17:32;;;;;;;3.83;3.43;;;;;;;24.28;50.07;94993.56;5137936;27;20842;-87
2022/07/11 05:19:58;;;;;;;3.20;2.87;;;;;;;24.45;49.31;95001.97;5137428;27;20458;-86
2022/07/11 05:22:25;;;;;;;3.27;2.97;;;;;;;24.41;49.05;95001.59;5136157;27;20455;-86
2022/07/11 05:24:54;;;;;;;4.43;3.20;;;;;;;24.18;49.71;94996.69;5135867;27;20460;-88
2022/07/11 05:27:21;;;;;;;3.93;3.33;;;;;;;24.00;50.29;94996.53;5136167;27;20457;-87
2022/07/11 05:29:48;;;;;;;2.70;2.60;;;;;;;23.62;50.78;94991.03;5136469;27;20534;-85
2022/07/11 05:32:15;;;;;;;2.80;2.60;;;;;;;23.01;52.74;95005.41;5136332;27;20470;-86
2022/07/11 05:34:42;;;;;;;9.67;3.37;;;;;;;22.41;53.06;94979.50;5135943;27;20968;-86
2022/07/11 05:37:09;;;;;;;4.77;3.10;;;;;;;22.33;54.80;94979.69;5136545;27;20447;-87
2022/07/11 05:39:36;;;;;;;2.80;2.60;;;;;;;22.39;53.27;94990.41;5135648;27;20650;-88
2022/07/11 05:42:05;;;;;;;2.90;2.60;;;;;;;22.57;53.03;94992.53;5135602;27;20793;-85
2022/07/11 05:44:32;;;;;;;4.60;2.73;;;;;;;22.69;53.35;94996.25;5049914;27;20453;-87
2022/07/11 05:47:02;;;;;;;4.73;2.73;;;;;;;22.62;53.44;94995.41;5135939;27;20447;-85
2022/07/11 05:49:32;;;;;;;4.03;3.07;;;;;;;22.35;51.06;94999.84;5135722;27;20445;-87
2022/07/11 05:51:59;;;;;;;2.47;2.27;;;;;;;21.52;50.13;94993.59;5135770;27;20430;-87
2022/07/11 05:54:26;;;;;;;4.00;2.17;;;;;;;21.49;51.54;94999.34;5135331;27;20593;-86
2022/07/11 05:56:53;;;;;;;2.60;2.40;;;;;;;21.68;51.43;94997.81;5081765;27;20439;-87
2022/07/11 05:59:21;;;;;;;2.60;2.40;;;;;;;22.04;51.92;95003.00;5135800;27;20469;-88
2022/07/11 06:01:48;;;;;;;5.00;2.10;;;;;;;22.50;51.69;95002.34;5135277;27;20457;-86
2022/07/11 06:04:15;;;;;;;2.47;2.27;;;;;;;23.17;47.55;95007.69;5136078;27;20465;-86
2022/07/11 06:06:42;;;;;;;5.10;2.90;;;;;;;23.48;46.05;95007.09;5135248;27;20448;-87
2022/07/11 06:09:09;;;;;;;5.27;2.60;;;;;;;23.66;44.76;95013.69;5134705;27;20964;-89
2022/07/11 06:11:36;;;;;;;2.07;1.60;;;;;;;23.56;42.50;95013.28;5134884;27;20468;-86
2022/07/11 06:14:03;;;;;;;2.83;2.03;;;;;;;23.84;42.20;95019.25;5135088;27;20448;-86
2022/07/11 06:16:31;;;;;;;3.60;1.53;;;;;;;23.69;40.29;95023.97;5134883;27;20480;-86
2022/07/11 06:18:59;;;;;;;5.00;2.00;;;;;;;23.66;40.38;95014.50;5134517;27;20973;-86
2022/07/11 06:21:26;;;;;;;2.10;1.90;;;;;;;23.48;39.40;95017.81;5135168;27;20457;-87
2022/07/11 06:23:53;;;;;;;2.30;1.80;;;;;;;23.42;40.23;95017.81;5135036;27;20471;-87
2022/07/11 06:26:20;;;;;;;2.80;2.00;;;;;;;23.35;39.30;95023.16;5134973;27;20448;-84
2022/07/11 06:28:47;;;;;;;2.90;1.90;;;;;;;23.33;38.62;95025.19;5135084;27;20440;-86
2022/07/11 06:31:16;;;;;;;1.87;1.77;;;;;;;23.29;39.98;95023.16;5135550;27;20440;-87
2022/07/11 06:33:44;;;;;;;3.43;1.93;;;;;;;23.53;40.02;95019.03;5135775;27;20839;-87
2022/07/11 06:36:11;;;;;;;2.67;1.80;;;;;;;23.47;40.56;95020.69;5081422;27;20483;-87
2022/07/11 06:38:38;;;;;;;1.90;1.73;;;;;;;23.38;38.80;95016.53;5134986;27;20451;-86
2022/07/11 06:41:05;;;;;;;2.33;1.83;;;;;;;23.28;39.12;95013.47;5134428;27;20428;-88
2022/07/11 06:43:32;;;;;;;2.43;2.00;;;;;;;23.30;38.59;95020.25;5134956;27;20451;-87
2022/07/11 06:46:00;;;;;;;1.90;1.80;;;;;;;23.60;39.00;95018.03;5135100;27;20812;-87
2022/07/11 06:48:27;;;;;;;5.17;1.80;;;;;;;23.85;38.36;95030.78;5134530;27;20437;-87
2022/07/11 06:50:56;;;;;;;5.53;2.70;;;;;;;23.93;38.21;95011.78;5136090;27;20448;-88
2022/07/11 06:53:23;;;;;;;4.87;1.93;;;;;;;23.46;38.47;95009.16;5135193;27;20457;-89
2022/07/11 06:55:49;;;;;;;2.23;1.93;;;;;;;23.28;38.36;95000.06;5134167;27;20485;-89
2022/07/11 07:00:57;;;;;;;3.70;1.73;;;;;;;23.24;39.11;95014.91;5133849;27;20439;-88
2022/07/11 07:03:24;;;;;;;1.77;1.67;;;;;;;23.31;40.56;95010.38;5133904;27;20932;-86
2022/07/11 07:05:55;;;;;;;3.00;1.60;;;;;;;23.48;38.32;95011.63;5080408;28;20507;-88
2022/07/11 07:08:24;;;;;;;2.77;1.80;;;;;;;23.86;38.79;95003.78;5133783;27;20800;-90
2022/07/11 07:10:51;;;;;;;1.80;1.70;;;;;;;24.33;37.57;95008.00;5134030;27;20469;-88
2022/07/11 07:13:18;;;;;;;2.87;1.70;;;;;;;24.34;36.94;95008.84;5133874;27;20941;-90
2022/07/11 07:15:46;;;;;;;3.13;2.10;;;;;;;24.25;35.35;94984.06;5134126;27;20884;-88
2022/07/11 07:18:13;;;;;;;2.13;1.93;;;;;;;24.02;35.32;95003.34;5133981;27;20510;-87
2022/07/11 07:20:40;;;;;;;2.40;1.53;;;;;;;23.92;36.51;95008.28;5134164;27;20449;-86
2022/07/11 07:23:06;;;;;;;2.10;1.90;;;;;;;24.00;36.66;95010.78;5133377;27;20438;-87
2022/07/11 07:25:35;;;;;;;4.93;2.03;;;;;;;24.10;36.97;95008.47;5133900;27;20447;-87
2022/07/11 07:28:02;;;;;;;2.13;1.70;;;;;;;24.28;36.26;94996.25;5133902;27;21057;-88
2022/07/11 07:30:29;;;;;;;4.83;2.17;;;;;;;23.87;37.24;94993.88;5133662;27;20939;-88
2022/07/11 07:32:56;;;;;;;5.20;2.13;;;;;;;23.98;38.22;94991.34;5133839;27;20460;-90
2022/07/11 07:35:23;;;;;;;2.80;1.70;;;;;;;24.19;37.53;94989.44;5134033;27;20519;-86
2022/07/11 07:37:50;;;;;;;2.30;2.10;;;;;;;24.27;37.88;94978.47;5133624;27;20453;-88
2022/07/11 07:40:17;;;;;;;6.23;2.27;;;;;;;24.47;39.36;94978.44;5135149;27;20444;-86
2022/07/11 07:42:45;;;;;;;3.03;1.80;;;;;;;24.59;38.12;94974.88;5134032;27;20453;-88
2022/07/11 07:45:12;;;;;;;3.90;1.83;;;;;;;24.32;38.23;94971.50;5133883;28;20429;-89
2022/07/11 07:47:39;;;;;;;2.47;2.27;;;;;;;23.93;39.79;94968.91;5133661;28;20443;-88
2022/07/11 07:50:08;;;;;;;2.10;1.90;;;;;;;23.77;39.68;94972.88;5133577;28;20859;-89
2022/07/11 07:52:35;;;;;;;4.63;2.40;;;;;;;23.43;39.95;94971.25;5134267;28;20454;-92
2022/07/11 07:55:02;;;;;;;2.67;2.47;;;;;;;23.46;39.87;94977.00;5133881;28;20498;-89
2022/07/11 07:57:29;;;;;;;3.90;1.73;;;;;;;23.33;40.74;94968.97;5133725;28;20455;-90
2022/07/11 08:02:38;;;;;;;5.03;2.47;;;;;;;23.36;40.76;94981.13;5132311;28;20442;-88
2022/07/11 08:05:05;;;;;;;2.70;1.93;;;;;;;23.59;41.39;94972.69;5133360;28;20651;-88
2022/07/11 08:07:33;;;;;;;4.50;1.90;;;;;;;23.73;42.29;94972.47;5133255;28;20432;-89
2022/07/11 08:10:00;;;;;;;3.97;1.77;;;;;;;23.39;39.94;94978.03;5133676;28;20463;-89
2022/07/11 08:12:27;;;;;;;1.73;1.63;;;;;;;22.89;40.44;94974.94;5133481;28;20452;-88
2022/07/11 08:14:54;;;;;;;3.07;2.20;;;;;;;23.11;42.23;94979.03;5133625;28;20924;-89
2022/07/11 08:17:22;;;;;;;4.90;1.80;;;;;;;23.23;41.24;94979.28;5133365;27;20812;-89
2022/07/11 08:19:49;;;;;;;2.90;1.80;;;;;;;23.27;41.38;94993.91;5137470;27;20940;-90
2022/07/11 08:22:19;;;;;;;5.00;1.70;;;;;;;23.18;41.75;94984.44;5137965;27;20481;-89
2022/07/11 08:24:46;;;;;;;3.00;1.90;;;;;;;23.43;42.60;94990.81;5137387;27;20458;-86
2022/07/11 08:27:13;;;;;;;4.73;2.03;;;;;;;22.70;40.62;94987.19;5137683;27;20447;-87
2022/07/11 08:29:40;;;;;;;1.80;1.70;;;;;;;22.83;42.22;94984.56;5137681;27;20444;-88
2022/07/11 08:32:07;;;;;;;5.00;2.00;;;;;;;22.74;42.05;94996.47;5137325;27;20449;-87
2022/07/11 08:34:36;;;;;;;4.03;2.00;;;;;;;22.98;41.29;94978.22;5137444;27;20448;-88
2022/07/11 08:37:03;;;;;;;3.90;1.70;;;;;;;23.00;41.63;94981.53;5137008;27;20480;-90
2022/07/11 08:39:30;;;;;;;7.53;2.30;;;;;;;22.97;40.75;94981.94;5137638;27;20454;-88
2022/07/11 08:41:58;;;;;;;8.73;1.80;;;;;;;22.94;40.13;94977.81;5137766;27;20436;-86
2022/07/11 08:44:25;;;;;;;1.63;1.20;;;;;;;22.52;39.68;94984.25;5137077;27;20960;-88
2022/07/11 08:46:54;;;;;;;3.57;1.63;;;;;;;22.69;41.11;94990.91;5100928;27;20965;-90
2022/07/11 08:49:22;;;;;;;1.83;1.70;;;;;;;22.77;40.32;94990.72;5136892;27;20449;-89
2022/07/11 08:51:50;;;;;;;4.60;2.20;;;;;;;22.52;41.19;94987.75;5136517;27;20440;-90
2022/07/11 08:54:17;;;;;;;2.87;1.70;;;;;;;22.73;41.41;94997.50;5136736;27;20439;-88
2022/07/11 08:56:45;;;;;;;2.50;1.67;;;;;;;22.70;41.40;94991.72;5083635;27;20482;-87
2022/07/11 08:59:17;;;;;;;3.50;1.90;;;;;;;22.81;40.33;94983.94;5137119;27;21007;-88
2022/07/11 09:01:46;;;;;;;5.70;2.03;;;;;;;22.53;40.70;94985.91;5137435;27;20436;-86
2022/07/11 09:04:14;;;;;;;1.73;1.63;;;;;;;22.65;40.99;94986.16;5136432;27;20435;-87
2022/07/11 09:06:41;;;;;;;9.57;2.10;;;;;;;22.77;39.97;94982.69;5136705;27;20669;-91
2022/07/11 09:09:10;;;;;;;2.37;2.10;;;;;;;22.69;39.80;94990.06;5136715;27;20446;-88
2022/07/11 09:11:51;;;;;;;1.97;1.77;;;;;;;22.51;39.00;94987.97;5136468;27;20470;-88
2022/07/11 09:14:25;;;;;;;3.03;2.80;;;;;;;22.50;39.59;94995.16;5136056;27;20525;-88
2022/07/11 09:16:54;;;;;;;1.97;1.40;;;;;;;22.60;37.93;94992.13;5136085;27;20481;-88
2022/07/11 09:19:25;;;;;;;3.83;1.53;;;;;;;22.73;40.81;94997.50;5136661;27;20507;-88
2022/07/11 09:27:45;;;;;;;3.00;1.60;;;;;;;22.77;40.38;95001.41;5136245;27;20562;-87
2022/07/11 09:30:24;;;;;;;2.23;1.63;;;;;;;22.42;39.75;94987.31;5099503;27;20435;-87
2022/07/11 09:32:56;;;;;;;3.03;1.63;;;;;;;22.64;40.84;95013.94;5136006;27;20459;-85
2022/07/11 09:35:23;;;;;;;4.03;1.83;;;;;;;22.69;40.74;95011.47;5135839;27;20446;-88
2022/07/11 09:37:50;;;;;;;2.30;1.40;;;;;;;22.60;40.47;94997.47;5136223;27;20465;-89
2022/07/11 09:40:20;;;;;;;2.47;1.70;;;;;;;22.29;40.28;94997.97;5136164;27;20954;-89
2022/07/11 09:42:48;;;;;;;3.53;1.73;;;;;;;22.28;40.35;95008.88;5136576;27;20446;-87
2022/07/11 09:45:17;;;;;;;2.20;2.00;;;;;;;22.37;40.83;95005.81;5135472;27;20440;-88
2022/07/11 09:47:45;;;;;;;2.47;1.90;;;;;;;22.47;40.53;95002.75;5135604;27;20455;-87
2022/07/11 09:50:12;;;;;;;2.17;1.60;;;;;;;22.37;39.37;95013.03;5135963;27;20797;-89
2022/07/11 09:52:39;;;;;;;2.43;1.90;;;;;;;22.10;40.36;95002.19;5135868;27;20447;-87
2022/07/11 09:55:07;;;;;;;2.53;1.60;;;;;;;22.23;40.04;95018.28;5135533;27;20986;-89
2022/07/11 09:57:36;;;;;;;2.03;1.73;;;;;;;22.31;41.16;95013.81;5135470;27;20483;-90
2022/07/11 10:00:07;;;;;;;2.10;1.67;;;;;;;22.24;41.50;95005.75;5135561;27;20970;-88
2022/07/11 10:02:34;;;;;;;3.40;1.80;;;;;;;21.72;40.84;95008.94;5135637;27;20455;-89
2022/07/11 10:05:02;;;;;;;3.53;1.73;;;;;;;21.79;41.59;95015.97;5135528;27;20439;-89
2022/07/11 10:07:29;;;;;;;1.80;1.63;;;;;;;21.91;40.69;95024.25;5135563;27;20430;-88
2022/07/11 10:09:58;;;;;;;3.77;1.77;;;;;;;21.75;39.42;95016.56;5135439;27;20521;-90
2022/07/11 10:12:25;;;;;;;3.40;1.83;;;;;;;21.70;40.81;95009.16;5135313;27;20439;-89
2022/07/11 10:14:55;;;;;;;7.73;1.60;;;;;;;21.73;41.06;95023.94;5135139;27;20447;-87
2022/07/11 10:17:29;;;;;;;7.63;1.80;;;;;;;21.79;39.85;95020.50;5135093;27;20487;-89
2022/07/11 10:20:03;;;;;;;3.70;1.77;;;;;;;21.77;41.05;95002.00;5134626;27;20455;-86
2022/07/11 10:22:36;;;;;;;2.50;2.30;;;;;;;21.50;42.16;95005.50;5134815;27;20461;-89
2022/07/11 10:25:12;;;;;;;2.07;1.87;;;;;;;21.69;41.58;95014.69;5134712;27;20445;-87
2022/07/11 10:27:50;;;;;;;1.70;1.60;;;;;;;21.82;43.84;95014.75;5134763;27;20434;-85
2022/07/11 10:30:43;;;;;;;1.83;1.67;;;;;;;21.97;43.27;95012.78;5134999;27;20441;-88
2022/07/11 10:33:10;;;;;;;4.10;1.60;;;;;;;21.97;41.87;95012.78;5134875;27;20515;-88
2022/07/11 10:35:41;;;;;;;2.90;1.90;;;;;;;21.87;41.82;95009.66;5134440;27;20445;-89
2022/07/11 10:38:08;;;;;;;3.50;2.13;;;;;;;22.01;42.75;95019.41;5135200;27;20461;-88
2022/07/11 10:40:49;;;;;;;2.73;2.47;;;;;;;22.16;44.48;95024.63;5134900;27;20455;-87
2022/07/11 10:43:32;;;;;;;2.10;2.00;;;;;;;22.13;42.02;95017.84;5134395;27;20444;-88
2022/07/11 10:46:03;;;;;;;3.67;1.70;;;;;;;21.89;41.51;95012.94;5134843;27;20443;-89
2022/07/11 10:48:32;;;;;;;3.87;2.00;;;;;;;21.85;41.44;95011.69;5134555;27;20435;-85
2022/07/11 10:51:11;;;;;;;2.50;1.67;;;;;;;21.97;41.74;95007.44;5134672;27;20448;-88
2022/07/11 10:53:46;;;;;;;3.00;1.90;;;;;;;21.90;40.80;95004.72;5098536;27;20933;-89
2022/07/11 10:56:28;;;;;;;2.60;1.80;;;;;;;21.83;41.93;95011.06;5134473;27;20492;-89
2022/07/11 10:59:04;;;;;;;1.70;1.60;;;;;;;21.93;42.08;95017.69;5134562;27;20443;-88
2022/07/11 11:01:33;;;;;;;4.77;1.90;;;;;;;22.10;42.84;95014.75;5134425;27;20446;-86
2022/07/11 11:04:33;;;;;;;2.10;1.90;;;;;;;22.13;41.38;95023.19;5097916;27;20445;-87
2022/07/11 11:07:00;;;;;;;1.80;1.70;;;;;;;22.19;41.57;95019.72;5134590;27;20439;-86
2022/07/11 11:09:48;;;;;;;1.70;1.60;;;;;;;22.11;40.63;95022.56;5134600;27;20516;-88
2022/07/11 11:12:15;;;;;;;2.33;1.70;;;;;;;21.98;40.52;95019.81;5090507;28;20490;-90
2022/07/11 11:14:42;;;;;;;7.43;2.00;;;;;;;21.76;41.08;95016.38;5091304;28;20519;-89
2022/07/11 11:17:37;;;;;;;2.40;2.00;;;;;;;21.80;41.20;95030.16;5090989;28;20830;-87
2022/07/11 11:20:05;;;;;;;2.60;1.80;;;;;;;21.92;42.92;95023.22;5091234;28;20904;-89
2022/07/11 11:22:32;;;;;;;3.43;1.77;;;;;;;21.96;41.68;95027.16;5090894;28;20953;-89
2022/07/11 11:24:59;;;;;;;3.00;1.90;;;;;;;22.11;41.68;95027.91;5090618;28;20478;-89
2022/07/11 11:27:27;;;;;;;3.70;2.03;;;;;;;22.17;40.73;95023.63;5090597;28;20834;-89
2022/07/11 11:29:55;;;;;;;2.07;1.87;;;;;;;22.12;40.32;95021.53;5091097;28;20507;-86
2022/07/11 11:32:23;;;;;;;1.93;1.80;;;;;;;22.09;40.00;95027.28;5090827;28;20456;-90
2022/07/11 11:34:52;;;;;;;3.13;2.00;;;;;;;22.17;40.71;95032.47;5090477;28;20458;-88
2022/07/11 11:37:19;;;;;;;3.53;1.60;;;;;;;22.22;39.80;95015.81;5090218;28;20480;-87
2022/07/11 11:39:46;;;;;;;10.20;1.90;;;;;;;22.15;39.63;95025.66;5090659;28;20429;-89
2022/07/11 11:42:15;;;;;;;2.63;1.77;;;;;;;22.30;38.96;95025.53;5090844;28;20469;-89
2022/07/11 11:44:54;;;;;;;4.73;2.07;;;;;;;22.31;39.57;95030.69;5090794;28;20451;-88
2022/07/11 11:47:21;;;;;;;3.63;2.97;;;;;;;22.32;39.90;95026.16;5090256;28;20559;-83
2022/07/11 11:49:49;;;;;;;2.23;2.10;;;;;;;22.29;40.39;95031.91;5121805;28;20446;-88